createdAt,value
2023-04-15T00:00:22.961Z,1135.5
2023-04-15T00:01:29.709Z,1135.5
2023-04-15T00:02:36.397Z,1135.5
2023-04-15T00:03:43.101Z,1135.5
2023-04-15T00:04:49.797Z,1135.5
2023-04-15T00:05:56.504Z,1135.5
2023-04-15T00:07:03.300Z,1135.5
2023-04-15T00:08:09.908Z,1135.5
2023-04-15T00:09:16.630Z,1135.5
2023-04-15T00:10:23.307Z,1135.5
2023-04-15T00:11:30.088Z,1135.5
2023-04-15T00:12:36.710Z,1135.5
2023-04-15T00:13:43.409Z,1135.5
2023-04-15T00:14:50.121Z,1135.5
2023-04-15T00:18:08.288Z,1135.5
2023-04-15T00:19:46.175Z,1135.5
2023-04-15T00:20:52.558Z,1135.5
2023-04-15T00:21:58.904Z,1135.5
2023-04-15T00:23:05.283Z,1135.5
2023-04-15T00:24:11.630Z,1135.5
2023-04-15T00:25:17.960Z,1135.5
2023-04-15T00:26:24.323Z,1135.5
2023-04-15T00:27:30.630Z,1135.5
2023-04-15T00:28:36.972Z,1135.5
2023-04-15T00:29:43.345Z,1135.5
2023-04-15T00:30:49.675Z,1135.5
2023-04-15T00:31:56.022Z,1135.5
2023-04-15T00:33:02.378Z,1135.5
2023-04-15T00:34:08.726Z,1135.5
2023-04-15T00:35:15.072Z,1135.5
2023-04-15T00:36:21.396Z,1135.5
2023-04-15T00:37:27.752Z,1135.5
2023-04-15T00:38:34.105Z,1135.5
2023-04-15T00:39:40.519Z,1135.5
2023-04-15T00:40:46.802Z,1135.5
2023-04-15T00:41:53.130Z,1135.5
2023-04-15T00:42:59.483Z,1135.5
2023-04-15T00:44:05.824Z,1135.5
2023-04-15T00:45:12.165Z,1135.5
2023-04-15T00:46:18.549Z,1135.5
2023-04-15T00:47:24.993Z,1135.5
2023-04-15T00:48:31.492Z,1135.5
2023-04-15T00:49:37.997Z,1135.5
2023-04-15T00:50:44.487Z,1135.5
2023-04-15T00:51:50.980Z,1135.5
2023-04-15T00:52:57.487Z,1135.5
2023-04-15T00:54:03.977Z,1135.5
2023-04-15T00:55:10.483Z,1135.5
2023-04-15T00:56:16.985Z,1135.5
2023-04-15T00:57:23.471Z,1135.5
2023-04-15T00:58:29.992Z,1135.5
2023-04-15T00:59:36.480Z,1135.5
2023-04-15T01:00:42.960Z,1135.5
2023-04-15T01:02:32.330Z,1135.5
2023-04-15T01:03:39.019Z,1135.5
2023-04-15T01:04:45.710Z,1135.5
2023-04-15T01:05:52.430Z,1135.5
2023-04-15T01:06:59.114Z,1135.5
2023-04-15T01:08:05.815Z,1135.5
2023-04-15T01:09:12.516Z,1135.5
2023-04-15T01:10:19.262Z,1135.5
2023-04-15T01:11:25.940Z,1135.5
2023-04-15T01:12:32.629Z,1135.5
2023-04-15T01:13:39.334Z,1135.5
2023-04-15T01:14:46.029Z,1135.5
2023-04-15T01:15:52.726Z,1135.5
2023-04-15T01:19:10.908Z,1135.5
2023-04-15T01:20:48.792Z,1135.5
2023-04-15T01:21:55.134Z,1135.5
2023-04-15T01:23:01.513Z,1135.5
2023-04-15T01:24:07.830Z,1135.5
2023-04-15T01:25:14.178Z,1135.5
2023-04-15T01:26:20.524Z,1135.5
2023-04-15T01:27:26.903Z,1135.5
2023-04-15T01:28:33.219Z,1135.5
2023-04-15T01:29:39.617Z,1135.5
2023-04-15T01:30:45.911Z,1135.5
2023-04-15T01:31:52.261Z,1135.5
2023-04-15T01:32:58.606Z,1135.5
2023-04-15T01:34:04.952Z,1135.5
2023-04-15T01:35:11.307Z,1135.5
2023-04-15T01:36:17.704Z,1135.5
2023-04-15T01:38:30.337Z,1135.5
2023-04-15T01:39:36.689Z,1135.5
2023-04-15T01:40:43.036Z,1135.5
2023-04-15T01:41:49.385Z,1135.5
2023-04-15T01:44:02.151Z,1135.5
2023-04-15T01:45:08.417Z,1135.5
2023-04-15T01:46:14.765Z,1135.5
2023-04-15T01:47:21.117Z,1135.5
2023-04-15T01:48:27.599Z,1135.5
2023-04-15T01:49:34.108Z,1135.5
2023-04-15T01:50:40.629Z,1135.5
2023-04-15T01:51:47.096Z,1135.5
2023-04-15T01:52:53.600Z,1135.5
2023-04-15T01:54:00.102Z,1135.5
2023-04-15T01:55:06.591Z,1135.5
2023-04-15T01:56:13.165Z,1135.5
2023-04-15T01:57:19.592Z,1135.5
2023-04-15T01:58:26.225Z,1135.5
2023-04-15T01:59:32.594Z,1135.5
2023-04-15T02:00:39.092Z,1135.5
2023-04-15T02:01:45.589Z,1135.5
2023-04-15T02:03:34.973Z,1135.5
2023-04-15T02:04:41.639Z,1135.5
2023-04-15T02:05:48.334Z,1135.5
2023-04-15T02:06:55.065Z,1135.5
2023-04-15T02:08:01.745Z,1135.5
2023-04-15T02:09:08.454Z,1135.5
2023-04-15T02:10:15.152Z,1135.5
2023-04-15T02:11:21.855Z,1135.5
2023-04-15T02:12:28.610Z,1135.5
2023-04-15T02:13:35.274Z,1135.5
2023-04-15T02:14:41.975Z,1135.5
2023-04-15T02:15:48.674Z,1135.5
2023-04-15T02:16:55.397Z,1135.5
2023-04-15T02:20:13.554Z,1135.5
2023-04-15T02:21:51.558Z,1135.5
2023-04-15T02:22:58.044Z,1135.5
2023-04-15T02:24:04.546Z,1135.5
2023-04-15T02:25:11.051Z,1135.5
2023-04-15T02:26:17.580Z,1135.5
2023-04-15T02:27:24.047Z,1135.5
2023-04-15T02:28:30.557Z,1135.5
2023-04-15T02:29:37.044Z,1135.5
2023-04-15T02:30:43.566Z,1135.5
2023-04-15T02:31:50.057Z,1135.5
2023-04-15T02:32:56.599Z,1135.5
2023-04-15T02:34:03.046Z,1135.5
2023-04-15T02:35:09.547Z,1135.5
2023-04-15T02:36:16.045Z,1135.5
2023-04-15T02:37:22.542Z,1135.5
2023-04-15T02:38:29.042Z,1135.5
2023-04-15T02:39:35.539Z,1135.5
2023-04-15T02:40:42.044Z,1135.5
2023-04-15T02:41:48.539Z,1135.5
2023-04-15T02:42:55.048Z,1135.5
2023-04-15T02:44:01.550Z,1135.5
2023-04-15T02:45:08.046Z,1135.5
2023-04-15T02:46:14.537Z,1135.5
2023-04-15T02:47:21.042Z,1135.5
2023-04-15T02:48:27.554Z,1135.5
2023-04-15T02:49:34.281Z,1135.5
2023-04-15T02:50:40.983Z,1135.5
2023-04-15T02:51:47.693Z,1135.5
2023-04-15T02:52:54.405Z,1135.5
2023-04-15T02:54:01.095Z,1135.5
2023-04-15T02:55:07.788Z,1135.5
2023-04-15T02:56:14.497Z,1135.5
2023-04-15T02:57:21.205Z,1135.5
2023-04-15T02:58:27.891Z,1135.5
2023-04-15T02:59:34.599Z,1135.5
2023-04-15T03:00:41.308Z,1135.5
2023-04-15T03:01:48.007Z,1135.5
2023-04-15T03:02:54.711Z,1135.5
2023-04-15T03:06:12.900Z,1135.5
2023-04-15T03:07:50.890Z,1135.5
2023-04-15T03:08:57.424Z,1135.5
2023-04-15T03:10:03.886Z,1135.5
2023-04-15T03:11:10.381Z,1135.5
2023-04-15T03:12:16.884Z,1135.5
2023-04-15T03:13:23.410Z,1135.5
2023-04-15T03:14:29.911Z,1135.5
2023-04-15T03:15:36.381Z,1135.5
2023-04-15T03:16:42.892Z,1135.5
2023-04-15T03:17:49.386Z,1135.5
2023-04-15T03:18:55.897Z,1135.5
2023-04-15T03:20:02.519Z,1135.5
2023-04-15T03:21:08.904Z,1135.5
2023-04-15T03:22:15.384Z,1135.5
2023-04-15T03:23:21.877Z,1135.5
2023-04-15T03:24:28.389Z,1135.5
2023-04-15T03:25:34.877Z,1135.5
2023-04-15T03:26:41.415Z,1135.5
2023-04-15T03:27:47.872Z,1135.5
2023-04-15T03:28:54.372Z,1135.5
2023-04-15T03:30:00.878Z,1135.5
2023-04-15T03:31:07.376Z,1135.5
2023-04-15T03:32:13.879Z,1135.5
2023-04-15T03:33:20.385Z,1135.5
2023-04-15T03:34:26.872Z,1135.5
2023-04-15T03:35:33.617Z,1135.5
2023-04-15T03:36:40.324Z,1135.5
2023-04-15T03:37:47.020Z,1135.5
2023-04-15T03:38:53.722Z,1135.5
2023-04-15T03:40:00.425Z,1135.5
2023-04-15T03:41:07.131Z,1135.5
2023-04-15T03:42:13.832Z,1135.5
2023-04-15T03:43:20.545Z,1135.5
2023-04-15T03:44:27.242Z,1135.5
2023-04-15T03:45:33.945Z,1135.5
2023-04-15T03:46:40.644Z,1135.5
2023-04-15T03:47:47.346Z,1135.5
2023-04-15T03:48:54.062Z,1135.5
2023-04-15T03:52:12.336Z,1135.5
2023-04-15T03:53:50.227Z,1135.5
2023-04-15T03:54:56.728Z,1135.5
2023-04-15T03:56:03.250Z,1135.5
2023-04-15T03:57:09.724Z,1135.5
2023-04-15T03:58:16.230Z,1135.5
2023-04-15T03:59:22.725Z,1135.5
2023-04-15T04:00:29.227Z,1135.5
2023-04-15T04:01:35.722Z,1135.5
2023-04-15T04:02:42.230Z,1135.5
2023-04-15T04:03:48.743Z,1135.5
2023-04-15T04:04:55.240Z,1135.5
2023-04-15T04:06:01.749Z,1135.5
2023-04-15T04:07:08.224Z,1135.5
2023-04-15T04:08:14.734Z,1135.5
2023-04-15T04:09:21.229Z,1135.5
2023-04-15T04:10:27.725Z,1135.5
2023-04-15T04:11:34.226Z,1135.5
2023-04-15T04:12:40.721Z,1135.5
2023-04-15T04:13:47.226Z,1135.5
2023-04-15T04:14:53.727Z,1135.5
2023-04-15T04:16:00.219Z,1135.5
2023-04-15T04:17:06.722Z,1135.5
2023-04-15T04:18:13.228Z,1135.5
2023-04-15T04:19:19.725Z,1135.5
2023-04-15T04:20:26.218Z,1135.5
2023-04-15T04:21:32.956Z,1135.5
2023-04-15T04:22:39.675Z,1135.5
2023-04-15T04:23:46.377Z,1135.5
2023-04-15T04:24:53.080Z,1135.5
2023-04-15T04:25:59.775Z,1135.5
2023-04-15T04:27:06.476Z,1135.5
2023-04-15T04:28:13.190Z,1135.5
2023-04-15T04:29:19.886Z,1135.5
2023-04-15T04:30:26.582Z,1135.5
2023-04-15T04:31:33.286Z,1135.5
2023-04-15T04:32:39.996Z,1135.5
2023-04-15T04:33:46.684Z,1135.5
2023-04-15T04:34:53.387Z,1135.5
2023-04-15T04:38:11.572Z,1135.5
2023-04-15T04:39:49.593Z,1135.5
2023-04-15T04:40:56.069Z,1135.5
2023-04-15T04:42:02.578Z,1135.5
2023-04-15T04:43:09.076Z,1135.5
2023-04-15T04:44:15.574Z,1135.5
2023-04-15T04:45:22.072Z,1135.5
2023-04-15T04:46:28.571Z,1135.5
2023-04-15T04:47:35.069Z,1135.5
2023-04-15T04:48:41.570Z,1135.5
2023-04-15T04:49:48.071Z,1135.5
2023-04-15T04:50:54.568Z,1135.5
2023-04-15T04:52:01.133Z,1135.5
2023-04-15T04:53:07.675Z,1135.5
2023-04-15T04:54:14.073Z,1135.5
2023-04-15T04:55:20.576Z,1135.5
2023-04-15T04:56:27.077Z,1135.5
2023-04-15T04:57:33.578Z,1135.5
2023-04-15T04:58:40.189Z,1135.5
2023-04-15T04:59:46.565Z,1135.5
2023-04-15T05:00:53.065Z,1135.5
2023-04-15T05:01:59.580Z,1135.5
2023-04-15T05:03:06.096Z,1135.5
2023-04-15T05:04:12.554Z,1135.5
2023-04-15T05:05:19.058Z,1135.5
2023-04-15T05:08:39.013Z,1135.5
2023-04-15T05:09:45.697Z,1135.5
2023-04-15T05:10:52.414Z,1135.5
2023-04-15T05:11:59.122Z,1135.5
2023-04-15T05:13:05.892Z,1135.5
2023-04-15T05:14:12.526Z,1135.5
2023-04-15T05:15:19.260Z,1135.5
2023-04-15T05:16:25.924Z,1135.5
2023-04-15T05:17:32.657Z,1135.5
2023-04-15T05:18:39.395Z,1135.5
2023-04-15T05:19:46.112Z,1135.5
2023-04-15T05:20:52.854Z,1135.5
2023-04-15T05:24:11.009Z,1135.5
2023-04-15T05:25:48.803Z,1135.5
2023-04-15T05:26:55.132Z,1135.5
2023-04-15T05:28:01.555Z,1135.5
2023-04-15T05:29:07.854Z,1135.5
2023-04-15T05:30:14.183Z,1135.5
2023-04-15T05:31:20.541Z,1135.5
2023-04-15T05:32:26.883Z,1135.5
2023-04-15T05:33:33.219Z,1135.5
2023-04-15T05:34:39.590Z,1135.5
2023-04-15T05:35:45.919Z,1135.5
2023-04-15T05:36:52.268Z,1135.5
2023-04-15T05:37:58.622Z,1135.5
2023-04-15T05:39:04.962Z,1135.5
2023-04-15T05:40:11.304Z,1135.5
2023-04-15T05:41:17.658Z,1135.5
2023-04-15T05:42:24.038Z,1135.5
2023-04-15T05:43:30.349Z,1135.5
2023-04-15T05:44:36.698Z,1135.5
2023-04-15T05:45:43.069Z,1135.5
2023-04-15T05:46:49.394Z,1135.5
2023-04-15T05:47:55.740Z,1135.5
2023-04-15T05:49:02.093Z,1135.5
2023-04-15T05:50:08.544Z,1135.5
2023-04-15T05:51:14.892Z,1135.5
2023-04-15T05:52:21.121Z,1135.5
2023-04-15T05:53:27.639Z,1135.5
2023-04-15T05:54:34.111Z,1135.5
2023-04-15T05:55:40.601Z,1135.5
2023-04-15T05:56:47.169Z,1135.5
2023-04-15T05:57:53.654Z,1135.5
2023-04-15T05:59:00.117Z,1135.5
2023-04-15T06:00:06.725Z,1135.5
2023-04-15T06:01:13.254Z,1135.5
2023-04-15T06:02:19.652Z,1135.5
2023-04-15T06:03:26.218Z,1135.5
2023-04-15T06:04:32.634Z,1135.5
2023-04-15T06:05:39.144Z,1135.5
2023-04-15T06:06:45.603Z,1135.5
2023-04-15T06:08:34.941Z,1135.5
2023-04-15T06:09:41.654Z,1135.5
2023-04-15T06:10:48.475Z,1135.5
2023-04-15T06:11:55.190Z,1135.5
2023-04-15T06:13:01.786Z,1135.5
2023-04-15T06:14:08.521Z,1135.5
2023-04-15T06:15:15.160Z,1135.5
2023-04-15T06:16:21.864Z,1135.5
2023-04-15T06:17:28.637Z,1135.5
2023-04-15T06:18:35.386Z,1135.5
2023-04-15T06:19:42.085Z,1135.5
2023-04-15T06:20:48.691Z,1135.5
2023-04-15T06:21:55.474Z,1135.5
2023-04-15T06:25:13.558Z,1135.5
2023-04-15T06:26:51.602Z,1135.5
2023-04-15T06:27:58.076Z,1135.5
2023-04-15T06:29:04.616Z,1135.5
2023-04-15T06:30:11.053Z,1135.5
2023-04-15T06:31:17.640Z,1135.5
2023-04-15T06:32:24.076Z,1135.5
2023-04-15T06:33:30.561Z,1135.5
2023-04-15T06:34:37.099Z,1135.5
2023-04-15T06:35:43.577Z,1135.5
2023-04-15T06:36:50.068Z,1135.5
2023-04-15T06:37:56.551Z,1135.5
2023-04-15T06:39:03.071Z,1135.5
2023-04-15T06:40:09.563Z,1135.5
2023-04-15T06:41:16.059Z,1135.5
2023-04-15T06:42:22.544Z,1135.5
2023-04-15T06:43:29.071Z,1135.5
2023-04-15T06:44:35.558Z,1135.5
2023-04-15T06:45:42.049Z,1135.5
2023-04-15T06:46:48.550Z,1135.5
2023-04-15T06:47:55.053Z,1135.5
2023-04-15T06:49:01.551Z,1135.5
2023-04-15T06:50:08.049Z,1135.5
2023-04-15T06:51:14.625Z,1135.5
2023-04-15T06:52:21.087Z,1135.5
2023-04-15T06:53:27.552Z,1135.5
2023-04-15T06:54:34.321Z,1135.5
2023-04-15T06:55:41.062Z,1135.5
2023-04-15T06:56:47.679Z,1135.5
2023-04-15T06:57:54.402Z,1135.5
2023-04-15T06:59:01.088Z,1135.5
2023-04-15T07:00:07.806Z,1135.5
2023-04-15T07:01:14.495Z,1135.5
2023-04-15T07:02:21.209Z,1135.5
2023-04-15T07:03:27.901Z,1135.5
2023-04-15T07:04:34.598Z,1135.5
2023-04-15T07:05:41.313Z,1135.5
2023-04-15T07:06:47.998Z,1135.5
2023-04-15T07:07:54.867Z,1135.5
2023-04-15T07:11:12.881Z,1135.5
2023-04-15T07:12:50.892Z,1135.5
2023-04-15T07:13:57.577Z,1135.5
2023-04-15T07:15:04.017Z,1135.5
2023-04-15T07:16:10.377Z,1135.5
2023-04-15T07:17:17.026Z,1135.5
2023-04-15T07:18:23.543Z,1135.5
2023-04-15T07:19:29.898Z,1135.5
2023-04-15T07:20:36.429Z,1135.5
2023-04-15T07:21:42.910Z,1135.5
2023-04-15T07:22:49.382Z,1135.5
2023-04-15T07:23:55.998Z,1135.5
2023-04-15T07:25:02.546Z,1135.5
2023-04-15T07:26:08.988Z,1135.5
2023-04-15T07:27:15.519Z,1135.5
2023-04-15T07:28:21.958Z,1135.5
2023-04-15T07:29:28.368Z,1135.5
2023-04-15T07:30:34.954Z,1135.5
2023-04-15T07:31:41.494Z,1135.5
2023-04-15T07:32:47.949Z,1135.5
2023-04-15T07:33:54.401Z,1135.5
2023-04-15T07:35:01.044Z,1135.5
2023-04-15T07:36:07.475Z,1135.5
2023-04-15T07:37:13.878Z,1135.5
2023-04-15T07:38:20.371Z,1135.5
2023-04-15T07:39:27.056Z,1135.5
2023-04-15T07:40:33.722Z,1135.5
2023-04-15T07:41:40.312Z,1135.5
2023-04-15T07:42:47.016Z,1135.5
2023-04-15T07:43:53.889Z,1135.5
2023-04-15T07:45:00.588Z,1135.5
2023-04-15T07:46:07.330Z,1135.5
2023-04-15T07:47:13.828Z,1135.5
2023-04-15T07:48:20.683Z,1135.5
2023-04-15T07:49:27.410Z,1135.5
2023-04-15T07:50:34.109Z,1135.5
2023-04-15T07:51:40.647Z,1135.5
2023-04-15T07:52:47.335Z,1135.5
2023-04-15T07:53:54.037Z,1135.5
2023-04-15T07:57:12.242Z,1135.5
2023-04-15T07:58:50.208Z,1135.5
2023-04-15T07:59:56.573Z,1135.5
2023-04-15T08:01:02.847Z,1135.5
2023-04-15T08:02:09.352Z,1135.5
2023-04-15T08:03:15.486Z,1135.5
2023-04-15T08:04:21.951Z,1135.5
2023-04-15T08:05:28.343Z,1135.5
2023-04-15T08:06:34.665Z,1135.5
2023-04-15T08:07:40.939Z,1135.5
2023-04-15T08:08:47.344Z,1135.5
2023-04-15T08:09:53.700Z,1135.5
2023-04-15T08:11:00.062Z,1135.5
2023-04-15T08:12:06.256Z,1135.5
2023-04-15T08:13:12.610Z,1135.5
2023-04-15T08:14:18.942Z,1135.5
2023-04-15T08:15:25.345Z,1135.5
2023-04-15T08:16:31.684Z,1135.5
2023-04-15T08:17:38.079Z,1135.5
2023-04-15T08:18:44.342Z,1135.5
2023-04-15T08:19:50.847Z,1135.5
2023-04-15T08:20:57.147Z,1135.5
2023-04-15T08:22:03.381Z,1135.5
2023-04-15T08:23:09.871Z,1135.5
2023-04-15T08:24:16.179Z,1135.5
2023-04-15T08:25:22.415Z,1135.5
2023-04-15T08:26:28.965Z,1135.5
2023-04-15T08:27:35.441Z,1135.5
2023-04-15T08:28:41.896Z,1135.5
2023-04-15T08:29:48.552Z,1135.5
2023-04-15T08:30:54.914Z,1135.5
2023-04-15T08:32:01.388Z,1135.5
2023-04-15T08:33:07.914Z,1135.5
2023-04-15T08:34:14.481Z,1135.5
2023-04-15T08:35:20.885Z,1135.5
2023-04-15T08:36:27.401Z,1135.5
2023-04-15T08:37:33.890Z,1135.5
2023-04-15T08:38:40.396Z,1135.5
2023-04-15T08:39:46.962Z,1135.5
2023-04-15T08:41:36.316Z,1135.5
2023-04-15T08:42:43.042Z,1135.5
2023-04-15T08:43:49.693Z,1135.5
2023-04-15T08:44:56.458Z,1135.5
2023-04-15T08:46:03.035Z,1135.5
2023-04-15T08:47:09.797Z,1135.5
2023-04-15T08:48:16.455Z,1135.5
2023-04-15T08:49:23.334Z,1135.5
2023-04-15T08:50:29.921Z,1135.5
2023-04-15T08:51:36.683Z,1135.5
2023-04-15T08:52:43.363Z,1135.5
2023-04-15T08:53:49.951Z,1135.5
2023-04-15T08:54:56.666Z,1135.5
2023-04-15T08:58:14.836Z,1135.5
2023-04-15T08:59:52.979Z,1135.5
2023-04-15T09:00:59.504Z,1135.5
2023-04-15T09:02:05.991Z,1135.5
2023-04-15T09:03:12.417Z,1135.5
2023-04-15T09:04:18.934Z,1135.5
2023-04-15T09:05:25.483Z,1135.5
2023-04-15T09:06:31.918Z,1135.5
2023-04-15T09:07:38.338Z,1135.5
2023-04-15T09:08:44.932Z,1135.5
2023-04-15T09:09:51.453Z,1135.5
2023-04-15T09:10:57.830Z,1135.5
2023-04-15T09:12:04.328Z,1135.5
2023-04-15T09:13:10.946Z,1135.5
2023-04-15T09:14:17.426Z,1135.5
2023-04-15T09:15:23.880Z,1135.5
2023-04-15T09:16:30.326Z,1135.5
2023-04-15T09:17:36.921Z,1135.5
2023-04-15T09:18:43.321Z,1135.5
2023-04-15T09:19:49.922Z,1135.5
2023-04-15T09:20:56.436Z,1135.5
2023-04-15T09:22:02.830Z,1135.5
2023-04-15T09:23:09.438Z,1135.5
2023-04-15T09:24:15.826Z,1135.5
2023-04-15T09:25:22.342Z,1135.5
2023-04-15T09:26:28.908Z,1135.5
2023-04-15T09:27:35.685Z,1135.5
2023-04-15T09:28:42.521Z,1135.5
2023-04-15T09:29:48.993Z,1135.5
2023-04-15T09:30:55.669Z,1135.5
2023-04-15T09:32:02.391Z,1135.5
2023-04-15T09:33:09.081Z,1135.5
2023-04-15T09:34:15.763Z,1135.5
2023-04-15T09:35:22.517Z,1135.5
2023-04-15T09:36:29.216Z,1135.5
2023-04-15T09:37:35.981Z,1135.5
2023-04-15T09:38:42.653Z,1135.5
2023-04-15T09:39:49.355Z,1135.5
2023-04-15T09:40:56.089Z,1135.5
2023-04-15T09:44:14.326Z,1135.5
2023-04-15T09:45:52.208Z,1135.5
2023-04-15T09:46:58.739Z,1135.5
2023-04-15T09:48:05.361Z,1135.5
2023-04-15T09:49:11.818Z,1135.5
2023-04-15T09:50:18.167Z,1135.5
2023-04-15T09:51:24.664Z,1135.5
2023-04-15T09:52:31.191Z,1135.5
2023-04-15T09:53:37.721Z,1135.5
2023-04-15T09:54:44.159Z,1135.5
2023-04-15T09:55:50.839Z,1135.5
2023-04-15T09:56:57.279Z,1135.5
2023-04-15T09:58:03.804Z,1135.5
2023-04-15T09:59:10.302Z,1135.5
2023-04-15T10:00:16.810Z,1135.5
2023-04-15T10:01:23.199Z,1135.5
2023-04-15T10:02:29.680Z,1135.5
2023-04-15T10:03:36.183Z,1135.5
2023-04-15T10:04:42.648Z,1135.5
2023-04-15T10:05:49.239Z,1135.5
2023-04-15T10:06:55.700Z,1135.5
2023-04-15T10:08:02.175Z,1135.5
2023-04-15T10:09:08.644Z,1135.5
2023-04-15T10:10:15.284Z,1135.5
2023-04-15T10:11:21.682Z,1135.5
2023-04-15T10:12:28.265Z,1135.5
2023-04-15T10:13:34.950Z,1135.5
2023-04-15T10:14:41.581Z,1135.5
2023-04-15T10:15:48.322Z,1135.5
2023-04-15T10:16:54.994Z,1135.5
2023-04-15T10:18:01.716Z,1135.5
2023-04-15T10:19:08.474Z,1135.5
2023-04-15T10:20:15.108Z,1135.5
2023-04-15T10:21:21.913Z,1135.5
2023-04-15T10:22:28.498Z,1135.5
2023-04-15T10:23:35.320Z,1135.5
2023-04-15T10:24:42.039Z,1135.5
2023-04-15T10:25:48.702Z,1135.5
2023-04-15T10:26:55.380Z,1135.5
2023-04-15T10:30:13.543Z,1135.5
2023-04-15T10:31:51.514Z,1135.5
2023-04-15T10:32:58.073Z,1135.5
2023-04-15T10:34:04.487Z,1135.5
2023-04-15T10:35:11.056Z,1135.5
2023-04-15T10:36:17.541Z,1135.5
2023-04-15T10:37:23.981Z,1135.5
2023-04-15T10:38:30.482Z,1135.5
2023-04-15T10:39:36.974Z,1135.5
2023-04-15T10:40:43.482Z,1135.5
2023-04-15T10:41:50.032Z,1135.5
2023-04-15T10:42:56.536Z,1135.5
2023-04-15T10:44:03.099Z,1135.5
2023-04-15T10:45:09.723Z,1135.5
2023-04-15T10:46:16.025Z,1135.5
2023-04-15T10:47:22.628Z,1135.5
2023-04-15T10:48:29.033Z,1135.5
2023-04-15T10:49:35.468Z,1135.5
2023-04-15T10:50:42.039Z,1135.5
2023-04-15T10:51:48.469Z,1135.5
2023-04-15T10:52:54.960Z,1135.5
2023-04-15T10:54:01.510Z,1135.5
2023-04-15T10:55:08.155Z,1135.5
2023-04-15T10:56:14.453Z,1135.5
2023-04-15T10:57:21.001Z,1135.5
2023-04-15T10:58:27.509Z,1135.5
2023-04-15T10:59:34.296Z,1135.5
2023-04-15T11:00:40.948Z,1135.5
2023-04-15T11:01:47.583Z,1135.5
2023-04-15T11:02:54.290Z,1135.5
2023-04-15T11:04:01.094Z,1135.5
2023-04-15T11:05:07.793Z,1135.5
2023-04-15T11:06:14.565Z,1135.5
2023-04-15T11:07:21.101Z,1135.5
2023-04-15T11:08:27.936Z,1135.5
2023-04-15T11:09:34.480Z,1135.5
2023-04-15T11:10:41.252Z,1135.5
2023-04-15T11:11:47.975Z,1135.5
2023-04-15T11:12:54.587Z,1135.5
2023-04-15T11:16:12.758Z,1135.5
2023-04-15T11:17:51.504Z,1135.5
2023-04-15T11:18:58.731Z,1135.5
2023-04-15T11:20:04.724Z,1135.5
2023-04-15T11:22:17.731Z,1135.5
2023-04-15T11:23:24.315Z,1135.5
2023-04-15T11:24:30.712Z,1135.5
2023-04-15T11:25:37.205Z,1135.5
2023-04-15T11:26:43.708Z,1135.5
2023-04-15T11:27:50.376Z,1135.5
2023-04-15T11:28:56.850Z,1135.5
2023-04-15T11:30:03.239Z,1135.5
2023-04-15T11:31:09.794Z,1135.5
2023-04-15T11:32:16.190Z,1135.5
2023-04-15T11:33:22.857Z,1135.5
2023-04-15T11:34:29.191Z,1135.5
2023-04-15T11:35:35.685Z,1135.5
2023-04-15T11:36:42.181Z,1135.5
2023-04-15T11:37:48.687Z,1135.5
2023-04-15T11:38:55.183Z,1135.5
2023-04-15T11:40:01.684Z,1135.5
2023-04-15T11:41:08.171Z,1135.5
2023-04-15T11:42:14.667Z,1135.5
2023-04-15T11:43:21.180Z,1135.5
2023-04-15T11:44:27.668Z,1135.5
2023-04-15T11:45:34.166Z,1135.5
2023-04-15T11:46:40.661Z,1135.5
2023-04-15T11:47:47.405Z,1135.5
2023-04-15T11:48:54.089Z,1135.5
2023-04-15T11:50:00.797Z,1135.5
2023-04-15T11:51:07.506Z,1135.5
2023-04-15T11:52:14.198Z,1135.5
2023-04-15T11:53:20.898Z,1135.5
2023-04-15T11:54:27.605Z,1135.5
2023-04-15T11:55:34.305Z,1135.5
2023-04-15T11:56:41.003Z,1135.5
2023-04-15T11:57:47.707Z,1135.5
2023-04-15T11:58:54.422Z,1135.5
2023-04-15T12:00:01.101Z,1135.5
2023-04-15T12:01:07.811Z,1135.5
2023-04-15T12:02:15.016Z,1135.5
2023-04-15T12:03:53.013Z,1135.5
2023-04-15T12:04:59.518Z,1135.5
2023-04-15T12:07:12.509Z,1135.5
2023-04-15T12:08:19.004Z,1135.5
2023-04-15T12:09:25.499Z,1135.5
2023-04-15T12:10:32.004Z,1135.5
2023-04-15T12:11:38.496Z,1135.5
2023-04-15T12:12:45.001Z,1135.5
2023-04-15T12:13:51.538Z,1135.5
2023-04-15T12:14:58.017Z,1135.5
2023-04-15T12:16:04.481Z,1135.5
2023-04-15T12:17:10.976Z,1135.5
2023-04-15T12:18:17.486Z,1135.5
2023-04-15T12:19:23.983Z,1135.5
2023-04-15T12:20:30.475Z,1135.5
2023-04-15T12:21:36.976Z,1135.5
2023-04-15T12:22:43.478Z,1135.5
2023-04-15T12:23:49.962Z,1135.5
2023-04-15T12:24:56.472Z,1135.5
2023-04-15T12:26:02.959Z,1135.5
2023-04-15T12:27:09.455Z,1135.5
2023-04-15T12:28:15.972Z,1135.5
2023-04-15T12:29:22.471Z,1135.5
2023-04-15T12:30:28.957Z,1135.5
2023-04-15T12:31:35.689Z,1135.5
2023-04-15T12:32:42.484Z,1135.5
2023-04-15T12:33:49.090Z,1135.5
2023-04-15T12:34:55.862Z,1135.5
2023-04-15T12:36:02.521Z,1135.5
2023-04-15T12:39:22.592Z,1135.5
2023-04-15T12:40:29.303Z,1135.5
2023-04-15T12:41:36.004Z,1135.5
2023-04-15T12:43:49.398Z,1135.5
2023-04-15T12:44:56.110Z,1135.5
2023-04-15T12:48:14.281Z,1135.5
2023-04-15T12:49:50.003Z,1135.5
2023-04-15T12:50:57.310Z,1135.5
2023-04-15T12:52:35.453Z,1135.5
2023-04-15T12:53:42.155Z,1135.5
2023-04-15T12:55:55.548Z,1135.5
2023-04-15T12:57:02.253Z,1135.5
2023-04-15T12:58:08.960Z,1135.5
2023-04-15T12:59:15.696Z,1135.5
2023-04-15T13:01:29.053Z,1135.5
2023-04-15T13:02:35.772Z,1135.5
2023-04-15T13:03:42.464Z,1135.5
2023-04-15T13:04:49.163Z,1135.5
2023-04-15T13:05:55.861Z,1135.5
2023-04-15T13:07:02.559Z,1135.5
2023-04-15T13:08:09.264Z,1135.5
2023-04-15T13:09:15.967Z,1135.5
2023-04-15T13:10:22.663Z,1135.5
2023-04-15T13:11:29.365Z,1135.5
2023-04-15T13:12:36.084Z,1135.5
2023-04-15T13:13:42.763Z,1135.5
2023-04-15T13:14:49.472Z,1135.5
2023-04-15T13:15:56.160Z,1135.5
2023-04-15T13:17:02.871Z,1135.5
2023-04-15T13:18:09.569Z,1135.5
2023-04-15T13:19:16.272Z,1135.5
2023-04-15T13:21:28.514Z,1135.5
2023-04-15T13:23:07.316Z,1135.5
2023-04-15T13:24:14.551Z,1135.5
2023-04-15T13:25:20.571Z,1135.5
2023-04-15T13:26:27.065Z,1135.5
2023-04-15T13:27:33.572Z,1135.5
2023-04-15T13:28:40.078Z,1135.5
2023-04-15T13:29:46.560Z,1135.5
2023-04-15T13:30:53.060Z,1135.5
2023-04-15T13:31:59.564Z,1135.5
2023-04-15T13:33:06.068Z,1135.5
2023-04-15T13:34:12.556Z,1135.5
2023-04-15T13:35:19.057Z,1135.5
2023-04-15T13:36:25.545Z,1135.5
2023-04-15T13:37:32.063Z,1135.5
2023-04-15T21:58:10.871Z,603.5
2023-04-15T21:59:19.121Z,608.1
2023-04-15T22:02:36.529Z,607.5
2023-04-15T22:05:53.940Z,607.5
2023-04-15T22:09:11.372Z,604.5
2023-04-15T22:15:46.161Z,606.8
2023-04-15T22:19:03.567Z,604.1
2023-04-15T22:22:20.965Z,606.3
2023-04-15T22:25:38.382Z,605.2
2023-04-15T22:28:55.825Z,603.5
2023-04-15T22:31:04.871Z,604.3
2023-04-15T22:32:13.183Z,604.2
2023-04-15T22:35:30.587Z,604.2
2023-04-15T22:42:05.398Z,604.6
2023-04-15T22:45:22.821Z,606.6
2023-04-15T22:48:40.225Z,603.5
2023-04-15T22:51:57.622Z,605.1
2023-04-15T22:55:15.053Z,604.4
2023-04-15T23:01:49.841Z,604.3
2023-04-15T23:03:58.862Z,603.6
2023-04-15T23:05:07.249Z,605.6
2023-04-15T23:08:24.647Z,604
2023-04-15T23:11:42.062Z,605
2023-04-15T23:14:59.458Z,603.2
2023-04-15T23:18:16.874Z,605
2023-04-15T23:21:34.286Z,603.2
2023-04-15T23:24:51.695Z,603.8
2023-04-15T23:28:09.081Z,605
2023-04-15T23:31:26.514Z,603.9
2023-04-15T23:34:43.905Z,604.1
2023-04-15T23:38:01.319Z,605.2
2023-04-15T23:41:18.718Z,604
2023-04-15T23:44:36.122Z,605
2023-04-15T23:47:53.527Z,602.7
2023-04-15T23:51:10.956Z,602.7
2023-04-15T23:54:28.345Z,603.3
2023-04-15T23:57:45.766Z,604.5
